Time;durP1;ratioP1;P1;durP2;ratioP2;P2;SDS_P1;SDS_P2;PMS_P1;PMS_P2;Temp;Humidity;BMP_temperature;BMP_pressure;BME280_temperature;BME280_humidity;BME280_pressure;Samples;Min_cycle;Max_cycle;Signal;HPM_P1;HPM_P2
2022/06/23 00:00:47;;;;;;;7.75;4.78;;;;;;;;;;5025939;28;20670;-82
2022/06/23 00:03:18;;;;;;;9.07;5.80;;;;;;;;;;5041929;28;20217;-82
2022/06/23 00:05:47;;;;;;;9.00;4.97;;;;;;;;;;5041457;28;20242;-81
2022/06/23 00:08:16;;;;;;;7.13;5.95;;;;;;;;;;5040458;28;20211;-82
2022/06/23 00:10:47;;;;;;;8.63;5.40;;;;;;;;;;5040183;28;20615;-81
2022/06/23 00:13:14;;;;;;;6.38;4.93;;;;;;;;;;5040408;28;20230;-81
2022/06/23 00:15:42;;;;;;;8.25;5.00;;;;;;;;;;5040187;28;20241;-82
2022/06/23 00:18:17;;;;;;;8.23;5.53;;;;;;;;;;5041159;28;20215;-82
2022/06/23 00:20:46;;;;;;;7.55;5.35;;;;;;;;;;5040443;28;20242;-81
2022/06/23 00:23:15;;;;;;;10.30;5.43;;;;;;;;;;5040055;28;20206;-82
2022/06/23 00:25:48;;;;;;;10.13;5.75;;;;;;;;;;5039558;28;20321;-82
2022/06/23 00:28:17;;;;;;;6.78;5.28;;;;;;;;;;5040567;28;20605;-81
2022/06/23 00:30:45;;;;;;;6.00;5.05;;;;;;;;;;5039621;28;20317;-81
2022/06/23 00:33:18;;;;;;;6.07;4.93;;;;;;;;;;5040070;28;20234;-82
2022/06/23 00:35:45;;;;;;;7.03;5.28;;;;;;;;;;5040236;28;20238;-82
2022/06/23 00:38:30;;;;;;;7.40;5.25;;;;;;;;;;5040610;28;20207;-82
2022/06/23 00:40:59;;;;;;;9.50;5.28;;;;;;;;;;5042515;28;20638;-83
2022/06/23 00:43:28;;;;;;;6.35;5.50;;;;;;;;;;5047246;28;20203;-82
2022/06/23 00:45:57;;;;;;;10.02;5.15;;;;;;;;;;5047406;28;20242;-82
2022/06/23 00:48:25;;;;;;;9.57;6.10;;;;;;;;;;5047152;28;20211;-82
2022/06/23 00:50:56;;;;;;;11.20;5.72;;;;;;;;;;5046644;28;20238;-82
2022/06/23 00:53:27;;;;;;;9.18;5.60;;;;;;;;;;5047829;28;20641;-82
2022/06/23 00:55:58;;;;;;;8.10;5.53;;;;;;;;;;5047273;28;20261;-82
2022/06/23 00:58:34;;;;;;;9.15;5.32;;;;;;;;;;5027532;28;20216;-82
2022/06/23 01:01:04;;;;;;;7.10;5.40;;;;;;;;;;5042040;28;20234;-83
2022/06/23 01:03:34;;;;;;;11.75;5.88;;;;;;;;;;5047139;28;20194;-81
2022/06/23 01:06:06;;;;;;;9.77;5.60;;;;;;;;;;5037550;28;20231;-81
2022/06/23 01:08:36;;;;;;;9.93;5.73;;;;;;;;;;5026838;28;20218;-82
2022/06/23 01:11:05;;;;;;;8.67;5.90;;;;;;;;;;5021961;28;20215;-81
2022/06/23 01:13:42;;;;;;;10.68;5.63;;;;;;;;;;5031453;28;20203;-82
2022/06/23 01:16:14;;;;;;;5.72;5.13;;;;;;;;;;5037027;28;20360;-81
2022/06/23 01:18:42;;;;;;;8.53;5.90;;;;;;;;;;5036006;28;20289;-82
2022/06/23 01:21:14;;;;;;;7.47;5.28;;;;;;;;;;5036574;28;20238;-82
2022/06/23 01:23:51;;;;;;;9.95;5.43;;;;;;;;;;5035905;28;20198;-82
2022/06/23 01:26:27;;;;;;;10.90;5.80;;;;;;;;;;5036235;28;20709;-81
2022/06/23 01:29:00;;;;;;;11.43;5.57;;;;;;;;;;5036055;28;20213;-81
2022/06/23 01:31:30;;;;;;;7.97;5.43;;;;;;;;;;5036688;28;20604;-82
2022/06/23 01:34:00;;;;;;;7.67;5.77;;;;;;;;;;5038178;28;20202;-82
2022/06/23 01:36:32;;;;;;;8.93;6.07;;;;;;;;;;5041070;28;20203;-81
2022/06/23 01:39:02;;;;;;;9.40;5.87;;;;;;;;;;5041751;28;20698;-82
2022/06/23 01:41:32;;;;;;;7.00;6.30;;;;;;;;;;5042533;28;20198;-82
2022/06/23 01:44:06;;;;;;;8.43;5.70;;;;;;;;;;5042027;28;20254;-81
2022/06/23 01:46:36;;;;;;;7.00;6.13;;;;;;;;;;5042337;28;20218;-81
2022/06/23 01:49:04;;;;;;;9.87;6.37;;;;;;;;;;5041413;28;20727;-82
2022/06/23 01:51:34;;;;;;;8.80;6.07;;;;;;;;;;5044291;28;20542;-82
2022/06/23 01:54:09;;;;;;;8.90;6.10;;;;;;;;;;5043545;28;20234;-81
2022/06/23 01:56:40;;;;;;;7.40;5.33;;;;;;;;;;5042820;28;20233;-82
2022/06/23 01:59:16;;;;;;;7.77;5.70;;;;;;;;;;5044578;28;20250;-82
2022/06/23 02:01:47;;;;;;;7.67;6.20;;;;;;;;;;5029706;28;20207;-82
2022/06/23 02:04:18;;;;;;;6.20;5.57;;;;;;;;;;5016292;28;20262;-82
2022/06/23 02:06:47;;;;;;;6.77;5.20;;;;;;;;;;5017530;28;20226;-81
2022/06/23 02:09:17;;;;;;;12.47;5.43;;;;;;;;;;5018195;28;20235;-82
2022/06/23 02:11:45;;;;;;;7.57;5.73;;;;;;;;;;5023175;28;20200;-81
2022/06/23 02:14:19;;;;;;;7.20;6.00;;;;;;;;;;5021990;28;20242;-81
2022/06/23 02:16:48;;;;;;;9.70;6.37;;;;;;;;;;5022163;28;20195;-81
2022/06/23 02:19:18;;;;;;;7.47;6.57;;;;;;;;;;5021876;28;20267;-82
2022/06/23 02:21:47;;;;;;;7.37;6.07;;;;;;;;;;5022753;28;20212;-81
2022/06/23 02:24:18;;;;;;;7.80;5.83;;;;;;;;;;5021912;28;20231;-81
2022/06/23 02:26:50;;;;;;;7.10;5.80;;;;;;;;;;5022197;28;20203;-81
2022/06/23 02:29:20;;;;;;;7.33;5.53;;;;;;;;;;5021392;28;20239;-81
2022/06/23 02:31:49;;;;;;;13.07;5.70;;;;;;;;;;5020394;28;20199;-82
2022/06/23 02:34:18;;;;;;;8.17;6.47;;;;;;;;;;5016042;28;20635;-81
2022/06/23 02:37:09;;;;;;;10.27;6.20;;;;;;;;;;5018672;28;20295;-81
2022/06/23 02:39:38;;;;;;;8.53;6.23;;;;;;;;;;5001603;28;20647;-82
2022/06/23 02:42:14;;;;;;;7.27;6.57;;;;;;;;;;5021366;28;20215;-82
2022/06/23 02:44:50;;;;;;;5.90;4.93;;;;;;;;;;5023447;28;20608;-81
2022/06/23 02:47:28;;;;;;;7.27;5.50;;;;;;;;;;5021228;28;20217;-81
2022/06/23 02:50:12;;;;;;;7.10;5.80;;;;;;;;;;5021919;28;20265;-82
2022/06/23 02:53:03;;;;;;;12.17;6.10;;;;;;;;;;5023192;28;20585;-82
2022/06/23 02:55:44;;;;;;;7.47;5.77;;;;;;;;;;5022251;28;20658;-81
2022/06/23 02:58:14;;;;;;;8.00;5.70;;;;;;;;;;5021575;28;20203;-82
2022/06/23 03:00:45;;;;;;;8.30;5.90;;;;;;;;;;5024594;28;20234;-82
2022/06/23 03:03:15;;;;;;;7.10;5.97;;;;;;;;;;5039914;28;20627;-82
2022/06/23 03:05:47;;;;;;;8.13;5.87;;;;;;;;;;5043537;28;20261;-83
2022/06/23 03:08:28;;;;;;;6.90;5.73;;;;;;;;;;5038940;28;20206;-83
2022/06/23 03:10:57;;;;;;;7.63;5.87;;;;;;;;;;5037523;28;20230;-82
2022/06/23 03:13:28;;;;;;;7.73;5.80;;;;;;;;;;5037419;28;20210;-83
2022/06/23 03:16:00;;;;;;;8.63;5.67;;;;;;;;;;5035700;28;20258;-83
2022/06/23 03:18:30;;;;;;;6.20;5.10;;;;;;;;;;5036613;28;20215;-82
2022/06/23 03:20:59;;;;;;;9.00;5.63;;;;;;;;;;5036296;28;20265;-82
2022/06/23 03:23:30;;;;;;;8.80;6.00;;;;;;;;;;5040186;28;20905;-83
2022/06/23 03:25:59;;;;;;;7.30;5.00;;;;;;;;;;5038915;28;20235;-82
2022/06/23 03:28:27;;;;;;;6.70;5.70;;;;;;;;;;5039734;28;20219;-83
2022/06/23 03:30:59;;;;;;;11.63;6.37;;;;;;;;;;5036521;28;20711;-83
2022/06/23 03:33:32;;;;;;;6.30;5.70;;;;;;;;;;5037069;28;20202;-81
2022/06/23 03:36:01;;;;;;;7.97;5.40;;;;;;;;;;5037456;28;20235;-82
2022/06/23 03:44:05;;;;;;;6.43;5.37;;;;;;;;;;5037740;28;20280;-81
2022/06/23 03:46:34;;;;;;;5.90;5.20;;;;;;;;;;5038912;28;20229;-81
2022/06/23 03:49:09;;;;;;;8.53;6.43;;;;;;;;;;5038183;28;20230;-82
2022/06/23 03:51:38;;;;;;;13.40;6.33;;;;;;;;;;5037090;28;20314;-83
2022/06/23 03:54:06;;;;;;;8.97;5.90;;;;;;;;;;5035735;28;20226;-83
2022/06/23 03:56:35;;;;;;;7.07;6.07;;;;;;;;;;5035480;28;20202;-82
2022/06/23 03:59:04;;;;;;;8.80;6.40;;;;;;;;;;5033884;28;20237;-81
2022/06/23 04:01:33;;;;;;;8.80;5.83;;;;;;;;;;5033596;28;20222;-82
2022/06/23 04:04:03;;;;;;;6.53;5.77;;;;;;;;;;5032930;28;20261;-82
2022/06/23 04:06:36;;;;;;;8.10;7.20;;;;;;;;;;5033057;28;20214;-82
2022/06/23 04:09:11;;;;;;;9.10;6.77;;;;;;;;;;5032822;28;20234;-82
2022/06/23 04:11:56;;;;;;;7.97;6.90;;;;;;;;;;5032933;28;20705;-82
2022/06/23 04:14:27;;;;;;;7.70;6.80;;;;;;;;;;5032890;28;20257;-82
2022/06/23 04:16:58;;;;;;;6.53;5.40;;;;;;;;;;5033149;28;20211;-82
2022/06/23 04:19:27;;;;;;;7.13;5.83;;;;;;;;;;5032723;28;20238;-82
2022/06/23 04:22:02;;;;;;;7.13;6.43;;;;;;;;;;5032696;28;20222;-82
2022/06/23 04:24:29;;;;;;;7.40;6.50;;;;;;;;;;5032396;28;20714;-82
2022/06/23 04:26:59;;;;;;;8.43;6.40;;;;;;;;;;5033683;28;20221;-82
2022/06/23 04:29:27;;;;;;;7.23;6.37;;;;;;;;;;5032077;28;20254;-83
2022/06/23 04:31:57;;;;;;;10.70;7.17;;;;;;;;;;5033219;28;20210;-82
2022/06/23 04:34:33;;;;;;;10.87;6.63;;;;;;;;;;5034062;28;20235;-82
2022/06/23 04:37:01;;;;;;;13.67;8.03;;;;;;;;;;5035553;28;20213;-82
2022/06/23 04:39:33;;;;;;;9.43;7.77;;;;;;;;;;5034984;28;20242;-83
2022/06/23 04:42:01;;;;;;;9.50;8.20;;;;;;;;;;5035164;28;20218;-82
2022/06/23 04:44:30;;;;;;;11.70;8.90;;;;;;;;;;5034620;28;20230;-83
2022/06/23 04:46:59;;;;;;;18.27;8.97;;;;;;;;;;5036838;28;20214;-82
2022/06/23 04:49:28;;;;;;;12.53;9.13;;;;;;;;;;5036597;28;20257;-82
2022/06/23 04:51:58;;;;;;;13.30;9.43;;;;;;;;;;5036718;28;20199;-82
2022/06/23 04:54:29;;;;;;;14.83;10.37;;;;;;;;;;5036843;28;20230;-82
2022/06/23 04:56:58;;;;;;;12.73;10.83;;;;;;;;;;5038325;28;20210;-82
2022/06/23 04:59:37;;;;;;;14.90;11.50;;;;;;;;;;5038346;28;20246;-82
2022/06/23 05:02:15;;;;;;;16.53;11.07;;;;;;;;;;5038596;28;20229;-82
2022/06/23 05:04:44;;;;;;;16.17;11.47;;;;;;;;;;5039609;28;20238;-82
2022/06/23 05:07:19;;;;;;;16.50;12.17;;;;;;;;;;5041697;28;20229;-82
2022/06/23 05:09:47;;;;;;;14.70;11.93;;;;;;;;;;5046043;28;20241;-82
2022/06/23 05:12:19;;;;;;;16.93;12.50;;;;;;;;;;5044527;28;20217;-82
2022/06/23 05:14:48;;;;;;;18.50;13.03;;;;;;;;;;5044099;28;20289;-82
2022/06/23 05:17:19;;;;;;;22.50;12.80;;;;;;;;;;5045181;28;20210;-81
2022/06/23 05:19:46;;;;;;;18.13;13.80;;;;;;;;;;5041444;28;20234;-82
2022/06/23 05:22:17;;;;;;;17.63;12.43;;;;;;;;;;5039510;28;20284;-81
2022/06/23 05:24:46;;;;;;;20.60;13.70;;;;;;;;;;5038677;28;20241;-82
2022/06/23 05:27:19;;;;;;;19.13;13.73;;;;;;;;;;5039231;28;20212;-81
2022/06/23 05:29:49;;;;;;;18.37;12.83;;;;;;;;;;5037693;28;20601;-82
2022/06/23 05:32:18;;;;;;;17.60;13.20;;;;;;;;;;5037082;28;20301;-82
2022/06/23 05:34:49;;;;;;;16.73;12.03;;;;;;;;;;5037020;28;20258;-82
2022/06/23 05:37:18;;;;;;;14.90;12.40;;;;;;;;;;5037660;28;20202;-82
2022/06/23 05:39:48;;;;;;;15.57;12.10;;;;;;;;;;5036895;28;20242;-82
2022/06/23 05:42:20;;;;;;;15.17;12.90;;;;;;;;;;5036642;28;20730;-82
2022/06/23 05:44:50;;;;;;;15.17;12.07;;;;;;;;;;5036537;28;20257;-83
2022/06/23 05:47:18;;;;;;;12.67;11.13;;;;;;;;;;5037689;28;20293;-82
2022/06/23 05:49:47;;;;;;;16.70;12.03;;;;;;;;;;5036666;28;20242;-82
2022/06/23 05:52:16;;;;;;;15.50;11.40;;;;;;;;;;5036540;28;20203;-82
2022/06/23 05:54:45;;;;;;;12.87;10.83;;;;;;;;;;5036098;28;20239;-82
2022/06/23 05:57:14;;;;;;;14.33;11.93;;;;;;;;;;5036697;28;20234;-81
2022/06/23 05:59:54;;;;;;;13.30;11.90;;;;;;;;;;5036117;28;20239;-83
2022/06/23 06:02:22;;;;;;;14.30;10.97;;;;;;;;;;5037491;28;20242;-82
2022/06/23 06:04:50;;;;;;;15.07;10.98;;;;;;;;;;5036599;28;20660;-82
2022/06/23 06:07:19;;;;;;;13.38;10.57;;;;;;;;;;5036563;28;20619;-82
2022/06/23 06:09:47;;;;;;;14.68;10.63;;;;;;;;;;5037208;28;20242;-80
2022/06/23 06:12:15;;;;;;;13.63;10.73;;;;;;;;;;5047531;28;20659;-82
2022/06/23 06:14:44;;;;;;;14.07;10.05;;;;;;;;;;5038777;28;20264;-81
2022/06/23 06:17:17;;;;;;;16.20;10.02;;;;;;;;;;5038443;28;20206;-82
2022/06/23 06:19:45;;;;;;;11.80;8.88;;;;;;;;;;5036307;28;20234;-82
2022/06/23 06:22:18;;;;;;;8.93;8.02;;;;;;;;;;5036839;28;20252;-83
2022/06/23 06:24:48;;;;;;;8.68;7.63;;;;;;;;;;5041461;28;20304;-82
2022/06/23 06:27:15;;;;;;;9.20;7.63;;;;;;;;;;5037976;28;20210;-80
2022/06/23 06:29:44;;;;;;;9.18;7.50;;;;;;;;;;5036424;28;20260;-83
2022/06/23 06:32:17;;;;;;;9.32;7.25;;;;;;;;;;5038321;28;20199;-82
2022/06/23 06:34:47;;;;;;;8.18;6.82;;;;;;;;;;5042544;28;20488;-82
2022/06/23 06:37:15;;;;;;;11.88;7.55;;;;;;;;;;5037381;28;20211;-82
2022/06/23 06:39:44;;;;;;;11.40;6.78;;;;;;;;;;5039947;28;20587;-82
2022/06/23 06:42:14;;;;;;;12.52;7.15;;;;;;;;;;5037418;28;20227;-82
2022/06/23 06:44:43;;;;;;;9.20;7.10;;;;;;;;;;5035872;28;20234;-82
2022/06/23 06:47:17;;;;;;;8.73;7.13;;;;;;;;;;5042196;28;20214;-82
2022/06/23 06:49:46;;;;;;;7.18;6.25;;;;;;;;;;5036989;28;20717;-83
2022/06/23 06:52:13;;;;;;;6.80;6.03;;;;;;;;;;5038048;28;20202;-84
2022/06/23 06:54:43;;;;;;;7.07;6.18;;;;;;;;;;5035423;28;20234;-83
2022/06/23 06:57:13;;;;;;;11.93;6.28;;;;;;;;;;5036842;28;20221;-83
2022/06/23 06:59:45;;;;;;;10.40;6.40;;;;;;;;;;5037805;28;20726;-82
2022/06/23 07:02:13;;;;;;;9.98;6.30;;;;;;;;;;5028651;28;20565;-83
2022/06/23 07:04:45;;;;;;;12.90;6.32;;;;;;;;;;5014905;28;20242;-83
2022/06/23 07:07:15;;;;;;;11.65;5.88;;;;;;;;;;5015479;28;20211;-82
2022/06/23 07:09:45;;;;;;;8.73;5.85;;;;;;;;;;5014723;28;20235;-83
2022/06/23 07:12:14;;;;;;;10.23;5.78;;;;;;;;;;5015481;28;20203;-82
2022/06/23 07:14:44;;;;;;;12.00;5.35;;;;;;;;;;5014786;28;20243;-83
2022/06/23 07:17:15;;;;;;;8.70;4.75;;;;;;;;;;5014469;28;20231;-83
2022/06/23 07:19:45;;;;;;;11.35;5.25;;;;;;;;;;5014555;28;20235;-83
2022/06/23 07:22:23;;;;;;;5.93;4.78;;;;;;;;;;5014675;28;20262;-82
2022/06/23 07:24:53;;;;;;;8.27;5.10;;;;;;;;;;5014166;28;20719;-82
2022/06/23 07:27:24;;;;;;;7.10;4.95;;;;;;;;;;5014749;28;20207;-83
2022/06/23 07:29:55;;;;;;;7.05;4.85;;;;;;;;;;5014082;28;20322;-83
2022/06/23 07:32:31;;;;;;;9.90;4.45;;;;;;;;;;5015762;28;20225;-82
2022/06/23 07:35:01;;;;;;;8.75;4.15;;;;;;;;;;5013979;28;20661;-83
2022/06/23 07:37:32;;;;;;;9.18;4.70;;;;;;;;;;5014710;28;20211;-83
2022/06/23 07:40:01;;;;;;;9.02;4.72;;;;;;;;;;5014014;28;20239;-82
2022/06/23 07:42:41;;;;;;;5.15;4.60;;;;;;;;;;5016979;28;20231;-83
2022/06/23 07:45:10;;;;;;;6.15;4.28;;;;;;;;;;5013831;28;20238;-84
2022/06/23 07:47:37;;;;;;;6.57;3.90;;;;;;;;;;5014350;28;20223;-83
2022/06/23 07:50:05;;;;;;;8.77;4.97;;;;;;;;;;5013655;28;20239;-84
2022/06/23 07:52:34;;;;;;;9.30;4.45;;;;;;;;;;5014139;28;20199;-83
2022/06/23 07:55:01;;;;;;;8.30;4.82;;;;;;;;;;5017841;28;20237;-83
2022/06/23 07:57:30;;;;;;;8.68;4.60;;;;;;;;;;5016090;28;20211;-83
2022/06/23 07:59:59;;;;;;;5.25;4.03;;;;;;;;;;5014930;28;20238;-83
2022/06/23 08:02:28;;;;;;;8.60;4.55;;;;;;;;;;5033688;28;20706;-84
2022/06/23 08:04:59;;;;;;;8.73;4.18;;;;;;;;;;5034540;28;20234;-83
2022/06/23 08:07:27;;;;;;;8.32;4.00;;;;;;;;;;5034854;28;20219;-83
2022/06/23 08:09:57;;;;;;;5.25;3.90;;;;;;;;;;5033327;28;20238;-82
2022/06/23 08:18:02;;;;;;;5.35;3.97;;;;;;;;;;5033738;28;20202;-83
2022/06/23 08:20:32;;;;;;;6.38;4.25;;;;;;;;;;5032600;28;20664;-83
2022/06/23 08:23:00;;;;;;;7.80;3.65;;;;;;;;;;5033255;28;20226;-83
2022/06/23 08:25:29;;;;;;;7.00;3.45;;;;;;;;;;5032300;28;20238;-84
2022/06/23 08:27:56;;;;;;;8.68;3.90;;;;;;;;;;5033519;28;20237;-83
2022/06/23 08:30:24;;;;;;;8.63;4.05;;;;;;;;;;5032720;28;20292;-83
2022/06/23 08:32:52;;;;;;;7.00;3.80;;;;;;;;;;5033558;28;20203;-84
2022/06/23 08:35:22;;;;;;;5.68;3.70;;;;;;;;;;5032955;28;20660;-83
2022/06/23 08:37:52;;;;;;;6.35;4.05;;;;;;;;;;5033454;28;20203;-83
2022/06/23 08:40:22;;;;;;;6.03;3.63;;;;;;;;;;5032584;28;20246;-83
2022/06/23 08:42:53;;;;;;;5.55;3.58;;;;;;;;;;5033700;28;20633;-84
2022/06/23 08:45:24;;;;;;;4.50;3.63;;;;;;;;;;5032551;28;20245;-82
2022/06/23 08:47:54;;;;;;;5.65;3.30;;;;;;;;;;5034070;28;20195;-83
2022/06/23 08:50:23;;;;;;;5.05;3.85;;;;;;;;;;5033268;28;20234;-82
2022/06/23 08:52:54;;;;;;;4.85;3.17;;;;;;;;;;5034390;28;20547;-82
2022/06/23 08:55:24;;;;;;;7.70;3.22;;;;;;;;;;5033778;28;20230;-82
2022/06/23 08:57:55;;;;;;;8.18;3.60;;;;;;;;;;5039124;28;20210;-82
2022/06/23 09:00:23;;;;;;;6.25;3.55;;;;;;;;;;5031889;28;20242;-84
2022/06/23 09:02:52;;;;;;;8.15;3.50;;;;;;;;;;5013096;28;20560;-84
2022/06/23 09:05:21;;;;;;;5.78;3.00;;;;;;;;;;5012180;28;20238;-83
2022/06/23 09:07:53;;;;;;;7.70;3.63;;;;;;;;;;5013521;28;20336;-84
2022/06/23 09:10:26;;;;;;;4.38;3.25;;;;;;;;;;5012661;28;20711;-83
2022/06/23 09:12:56;;;;;;;8.02;2.92;;;;;;;;;;5013001;28;20192;-84
2022/06/23 09:15:41;;;;;;;9.68;3.28;;;;;;;;;;5012417;28;20317;-83
2022/06/23 09:18:27;;;;;;;5.95;3.15;;;;;;;;;;5003710;28;20214;-84
2022/06/23 09:21:00;;;;;;;8.32;3.38;;;;;;;;;;5012073;28;20297;-85
2022/06/23 09:23:36;;;;;;;4.82;3.00;;;;;;;;;;5013213;28;20235;-84
2022/06/23 09:26:06;;;;;;;8.18;2.90;;;;;;;;;;5012444;28;20227;-84
2022/06/23 09:28:42;;;;;;;5.82;2.65;;;;;;;;;;5012527;28;20195;-84
2022/06/23 09:31:19;;;;;;;5.97;2.90;;;;;;;;;;5012953;28;20235;-84
2022/06/23 09:33:50;;;;;;;6.38;3.25;;;;;;;;;;5023492;28;20237;-84
2022/06/23 09:36:33;;;;;;;8.18;3.50;;;;;;;;;;5016379;28;20703;-84
2022/06/23 09:39:08;;;;;;;7.35;3.08;;;;;;;;;;5014263;28;20231;-84
2022/06/23 09:41:46;;;;;;;4.45;2.80;;;;;;;;;;5013883;28;20564;-84
2022/06/23 09:44:24;;;;;;;5.75;2.83;;;;;;;;;;5012579;28;20238;-84
2022/06/23 09:47:08;;;;;;;6.35;2.90;;;;;;;;;;5012686;28;20207;-82
2022/06/23 09:49:56;;;;;;;5.90;2.83;;;;;;;;;;5013333;28;20243;-84
2022/06/23 09:52:42;;;;;;;8.27;3.25;;;;;;;;;;5007317;28;20649;-84
2022/06/23 09:55:23;;;;;;;6.05;2.67;;;;;;;;;;5013930;28;20242;-84
2022/06/23 09:58:01;;;;;;;6.25;3.08;;;;;;;;;;5016208;28;20195;-84
2022/06/23 10:00:34;;;;;;;5.45;2.90;;;;;;;;;;5015435;28;20711;-84
2022/06/23 10:03:04;;;;;;;8.07;2.83;;;;;;;;;;5015860;28;20227;-84
2022/06/23 10:05:40;;;;;;;6.03;2.65;;;;;;;;;;5015528;28;20246;-84
2022/06/23 10:08:14;;;;;;;6.05;2.90;;;;;;;;;;5016135;28;20204;-84
2022/06/23 10:10:55;;;;;;;8.20;2.85;;;;;;;;;;5015077;28;20243;-84
2022/06/23 10:13:43;;;;;;;5.88;2.65;;;;;;;;;;5016710;28;20210;-84
2022/06/23 10:16:17;;;;;;;7.15;3.28;;;;;;;;;;4998254;28;20230;-85
2022/06/23 10:18:52;;;;;;;5.38;2.70;;;;;;;;;;5015723;28;20688;-84
2022/06/23 10:21:30;;;;;;;7.10;3.00;;;;;;;;;;5015051;28;20231;-84
2022/06/23 10:24:15;;;;;;;6.13;2.95;;;;;;;;;;5015192;28;20238;-85
2022/06/23 10:26:49;;;;;;;4.50;2.78;;;;;;;;;;5016377;28;20199;-85
2022/06/23 10:29:23;;;;;;;7.43;2.58;;;;;;;;;;5014618;28;20234;-84
2022/06/23 10:31:59;;;;;;;5.10;2.40;;;;;;;;;;5015184;28;20211;-84
2022/06/23 10:34:33;;;;;;;6.63;2.83;;;;;;;;;;5017443;28;20238;-84
2022/06/23 10:37:15;;;;;;;6.95;2.60;;;;;;;;;;5016063;28;20214;-84
2022/06/23 10:39:53;;;;;;;5.57;2.20;;;;;;;;;;5011722;28;20234;-84
2022/06/23 10:42:42;;;;;;;5.90;2.13;;;;;;;;;;5014818;28;20202;-84
2022/06/23 10:45:22;;;;;;;5.63;2.22;;;;;;;;;;5014553;28;20235;-84
2022/06/23 10:48:06;;;;;;;7.35;2.70;;;;;;;;;;5015443;28;20214;-84
2022/06/23 10:50:50;;;;;;;14.40;2.55;;;;;;;;;;5014217;28;20707;-84
2022/06/23 10:53:41;;;;;;;5.60;2.40;;;;;;;;;;5014289;28;20230;-84
2022/06/23 10:56:16;;;;;;;5.45;2.22;;;;;;;;;;4999113;28;20345;-84
2022/06/23 10:58:52;;;;;;;3.88;2.35;;;;;;;;;;5014255;28;20538;-85
2022/06/23 11:01:34;;;;;;;7.75;2.95;;;;;;;;;;5014156;28;20238;-84
2022/06/23 11:04:19;;;;;;;4.72;2.35;;;;;;;;;;5013881;28;20231;-84
2022/06/23 11:07:13;;;;;;;5.45;2.40;;;;;;;;;;5014029;28;20202;-84
2022/06/23 11:09:54;;;;;;;6.70;3.35;;;;;;;;;;4967819;28;20246;-84
2022/06/23 11:12:31;;;;;;;4.85;2.55;;;;;;;;;;5014967;28;20231;-84
2022/06/23 11:15:03;;;;;;;6.72;2.17;;;;;;;;;;5013799;28;20249;-84
2022/06/23 11:17:35;;;;;;;5.22;2.53;;;;;;;;;;5014179;28;20646;-85
2022/06/23 11:20:09;;;;;;;7.30;2.72;;;;;;;;;;5013457;28;20239;-84
2022/06/23 11:22:37;;;;;;;4.47;2.10;;;;;;;;;;5014102;28;20214;-84
2022/06/23 11:25:19;;;;;;;3.60;2.28;;;;;;;;;;5013217;28;20231;-84
2022/06/23 11:27:52;;;;;;;6.90;2.58;;;;;;;;;;4997679;28;20214;-84
2022/06/23 11:30:24;;;;;;;9.70;2.83;;;;;;;;;;5014706;28;20795;-82
2022/06/23 11:32:59;;;;;;;4.10;2.05;;;;;;;;;;5014559;28;20288;-84
2022/06/23 11:35:31;;;;;;;4.38;2.33;;;;;;;;;;5013700;28;20320;-84
2022/06/23 11:38:06;;;;;;;3.75;2.15;;;;;;;;;;5014123;28;20215;-84
2022/06/23 11:40:39;;;;;;;3.97;2.10;;;;;;;;;;5013764;28;20317;-84
2022/06/23 11:43:16;;;;;;;4.93;2.55;;;;;;;;;;5013608;28;20214;-84
2022/06/23 11:46:04;;;;;;;4.00;2.25;;;;;;;;;;5013371;28;20231;-85
2022/06/23 11:48:44;;;;;;;4.75;2.17;;;;;;;;;;5007342;28;20206;-84
2022/06/23 11:51:18;;;;;;;5.40;2.47;;;;;;;;;;5024710;28;20227;-84
2022/06/23 11:53:54;;;;;;;8.48;2.42;;;;;;;;;;5014224;28;20234;-84
2022/06/23 11:56:28;;;;;;;4.30;2.20;;;;;;;;;;5014252;28;20226;-84
2022/06/23 11:59:04;;;;;;;6.50;2.47;;;;;;;;;;5013317;28;20238;-85
2022/06/23 12:01:31;;;;;;;5.68;2.33;;;;;;;;;;5025268;28;20194;-85
2022/06/23 12:04:10;;;;;;;15.70;2.92;;;;;;;;;;5032297;28;20257;-84
2022/06/23 12:06:43;;;;;;;8.82;2.33;;;;;;;;;;5033193;28;20263;-84
2022/06/23 12:09:15;;;;;;;6.07;2.33;;;;;;;;;;5032365;28;20273;-83
2022/06/23 12:11:42;;;;;;;3.88;2.30;;;;;;;;;;5033160;28;20229;-84
2022/06/23 12:14:11;;;;;;;15.38;2.80;;;;;;;;;;5032900;28;20253;-84
2022/06/23 12:16:39;;;;;;;6.57;2.20;;;;;;;;;;5033215;28;20211;-84
2022/06/23 12:19:08;;;;;;;6.80;2.22;;;;;;;;;;5033200;28;20234;-84
2022/06/23 12:21:39;;;;;;;5.72;2.25;;;;;;;;;;5032905;28;20701;-84
2022/06/23 12:24:11;;;;;;;6.90;2.60;;;;;;;;;;5032406;28;20230;-84
2022/06/23 12:26:42;;;;;;;6.10;2.33;;;;;;;;;;5033055;28;20214;-84
2022/06/23 12:29:15;;;;;;;10.35;2.50;;;;;;;;;;5031959;28;20237;-84
2022/06/23 12:31:45;;;;;;;6.35;2.47;;;;;;;;;;5033073;28;20202;-84
2022/06/23 12:34:18;;;;;;;5.35;2.47;;;;;;;;;;5031697;28;20242;-84
2022/06/23 12:37:15;;;;;;;8.48;2.08;;;;;;;;;;5033743;28;20226;-84
2022/06/23 12:39:46;;;;;;;5.18;1.98;;;;;;;;;;5032466;28;20277;-84
2022/06/23 12:42:18;;;;;;;9.25;3.03;;;;;;;;;;5033362;28;20215;-84
2022/06/23 12:44:59;;;;;;;5.65;2.40;;;;;;;;;;5034399;28;20234;-84
2022/06/23 12:47:35;;;;;;;6.70;1.98;;;;;;;;;;5037854;28;20702;-84
2022/06/23 12:50:07;;;;;;;3.50;2.05;;;;;;;;;;5037813;28;20248;-84
2022/06/23 12:52:40;;;;;;;4.68;2.22;;;;;;;;;;5038709;28;20301;-83
2022/06/23 12:55:12;;;;;;;5.88;2.00;;;;;;;;;;5035545;28;20230;-84
2022/06/23 12:57:50;;;;;;;8.05;2.65;;;;;;;;;;5036932;28;20219;-84
2022/06/23 13:00:21;;;;;;;4.07;2.30;;;;;;;;;;5033990;28;20241;-84
2022/06/23 13:02:52;;;;;;;12.63;2.80;;;;;;;;;;5037623;28;20207;-84
2022/06/23 13:05:23;;;;;;;6.35;2.03;;;;;;;;;;5036435;28;20229;-84
2022/06/23 13:07:52;;;;;;;4.78;2.33;;;;;;;;;;5036401;28;20195;-83
2022/06/23 13:10:23;;;;;;;6.93;2.38;;;;;;;;;;5034771;28;20234;-84
2022/06/23 13:12:53;;;;;;;4.50;1.88;;;;;;;;;;5034261;28;20233;-83
2022/06/23 13:15:31;;;;;;;5.88;2.63;;;;;;;;;;5033650;28;20718;-85
2022/06/23 13:18:00;;;;;;;6.40;2.10;;;;;;;;;;5037856;28;20205;-84
2022/06/23 13:20:37;;;;;;;8.93;2.70;;;;;;;;;;5037082;28;20260;-84
2022/06/23 13:23:06;;;;;;;5.95;2.25;;;;;;;;;;5038566;28;20202;-82
2022/06/23 13:25:35;;;;;;;10.95;2.38;;;;;;;;;;5037530;28;20265;-84
2022/06/23 13:28:03;;;;;;;6.07;2.40;;;;;;;;;;5037092;28;20211;-84
2022/06/23 13:30:35;;;;;;;3.65;2.10;;;;;;;;;;5039655;28;20248;-84
2022/06/23 13:33:04;;;;;;;8.02;2.63;;;;;;;;;;5038246;28;20206;-84
2022/06/23 13:35:35;;;;;;;6.70;2.50;;;;;;;;;;5036746;28;20241;-84
2022/06/23 13:38:05;;;;;;;4.95;2.00;;;;;;;;;;5037158;28;20292;-84
2022/06/23 13:40:34;;;;;;;5.28;2.40;;;;;;;;;;5036243;28;20252;-84
2022/06/23 13:43:08;;;;;;;6.05;2.30;;;;;;;;;;5039382;28;20206;-83
2022/06/23 13:45:41;;;;;;;4.78;2.60;;;;;;;;;;5038411;28;20273;-83
2022/06/23 13:48:15;;;;;;;4.28;2.55;;;;;;;;;;5036022;28;20213;-84
2022/06/23 13:50:47;;;;;;;7.20;2.10;;;;;;;;;;5037637;28;20242;-84
2022/06/23 13:53:16;;;;;;;3.75;1.80;;;;;;;;;;5037186;28;20253;-85
2022/06/23 13:55:45;;;;;;;5.57;2.40;;;;;;;;;;5037985;28;20245;-83
2022/06/23 13:58:18;;;;;;;5.47;2.00;;;;;;;;;;5038316;28;20214;-84
2022/06/23 14:00:50;;;;;;;5.07;2.45;;;;;;;;;;5035053;28;20235;-84
2022/06/23 14:03:20;;;;;;;4.43;2.10;;;;;;;;;;5019950;28;20214;-83
2022/06/23 14:05:53;;;;;;;5.93;2.38;;;;;;;;;;5019468;28;20245;-84
2022/06/23 14:08:22;;;;;;;5.65;2.60;;;;;;;;;;5019264;28;20723;-83
2022/06/23 14:10:56;;;;;;;3.13;1.95;;;;;;;;;;5019827;28;20250;-85
2022/06/23 14:13:25;;;;;;;6.22;2.33;;;;;;;;;;5021123;28;20281;-84
2022/06/23 14:15:56;;;;;;;4.40;2.38;;;;;;;;;;5017662;28;20742;-84
2022/06/23 14:18:28;;;;;;;7.10;2.30;;;;;;;;;;5021296;28;20214;-84
2022/06/23 14:20:58;;;;;;;3.95;2.10;;;;;;;;;;5019882;28;20737;-84
2022/06/23 14:23:28;;;;;;;3.88;2.05;;;;;;;;;;5020911;28;20206;-84
2022/06/23 14:25:57;;;;;;;5.00;2.30;;;;;;;;;;5023777;28;20235;-84
2022/06/23 14:28:27;;;;;;;4.18;2.00;;;;;;;;;;5026107;28;20217;-83
2022/06/23 14:30:58;;;;;;;5.82;1.70;;;;;;;;;;5032059;28;20243;-83
2022/06/23 14:33:30;;;;;;;6.03;2.28;;;;;;;;;;5032055;28;20212;-83
2022/06/23 14:35:59;;;;;;;2.63;1.77;;;;;;;;;;5027399;28;20235;-82
2022/06/23 14:38:29;;;;;;;4.18;2.00;;;;;;;;;;5026554;28;20215;-83
2022/06/23 14:41:02;;;;;;;5.53;1.70;;;;;;;;;;5023490;28;20240;-83
2022/06/23 14:43:38;;;;;;;4.47;1.77;;;;;;;;;;5025931;28;20196;-83
2022/06/23 14:46:13;;;;;;;5.70;1.85;;;;;;;;;;5025124;28;20230;-84
2022/06/23 14:48:48;;;;;;;4.47;1.90;;;;;;;;;;5022298;28;20207;-83
2022/06/23 14:51:17;;;;;;;3.60;2.30;;;;;;;;;;5023696;28;20231;-84
2022/06/23 14:53:48;;;;;;;3.78;1.98;;;;;;;;;;5021925;28;20603;-84
2022/06/23 14:56:19;;;;;;;6.25;2.10;;;;;;;;;;5025318;28;20247;-84
2022/06/23 14:58:49;;;;;;;5.65;2.00;;;;;;;;;;5023102;28;20208;-83
2022/06/23 15:01:22;;;;;;;4.32;2.15;;;;;;;;;;5032057;28;20230;-83
2022/06/23 15:03:52;;;;;;;8.52;2.38;;;;;;;;;;5038872;28;20210;-84
2022/06/23 15:06:23;;;;;;;3.85;1.88;;;;;;;;;;5040140;28;20211;-83
2022/06/23 15:08:54;;;;;;;5.32;1.80;;;;;;;;;;5042193;28;20217;-83
2022/06/23 15:11:24;;;;;;;3.75;1.70;;;;;;;;;;5045375;28;20227;-83
2022/06/23 15:13:54;;;;;;;4.57;2.03;;;;;;;;;;5043435;28;20229;-84
2022/06/23 15:16:25;;;;;;;5.13;1.92;;;;;;;;;;5045768;28;20302;-83
2022/06/23 15:18:56;;;;;;;2.15;1.80;;;;;;;;;;5043147;28;20214;-83